ADDS METAR Data INFO
IDs: Format: Raw Decoded Include TAF

Data at: 2237 UTC 11 Dec 2017

K06D 112235Z AUTO 32010KT 10SM FEW014 BKN021 M07/M10 A3028 RMK AO2
K06D 112215Z AUTO 32009KT 10SM FEW014 OVC022 M07/M10 A3028 RMK AO2
K06D 112155Z AUTO 33012KT 10SM BKN020 M07/M10 A3028 RMK AO2
K06D 112135Z AUTO 33013KT 10SM BKN020 M06/M10 A3027 RMK AO2
K06D 112115Z AUTO 32010KT 10SM OVC020 M06/M10 A3026 RMK AO2
K06D 112055Z AUTO 33014KT 10SM OVC019 M06/M10 A3026 RMK AO2
K06D 112035Z AUTO 32011G17KT 10SM BKN019 M07/M10 A3025 RMK AO2
K06D 112015Z AUTO 32012G17KT 10SM BKN019 M06/M10 A3026 RMK AO2
K06D 111955Z AUTO 33015KT 10SM BKN018 M06/M10 A3026 RMK AO2
K06D 111935Z AUTO 34016KT 10SM OVC018 M07/M11 A3025 RMK AO2
K06D 111915Z AUTO 33015KT 10SM -SN OVC018 M06/M10 A3024 RMK AO2
K06D 111855Z AUTO 36015G21KT 10SM -SN BKN018 OVC022 M06/M10 A3023 RMK AO2
K06D 111835Z AUTO 35017G24KT 10SM OVC019 M07/M10 A3024 RMK AO2
K06D 111815Z AUTO 34020KT 10SM OVC017 M07/M10 A3024 RMK AO2
K06D 111755Z AUTO 34019KT 10SM -SN BKN017 BKN022 M07/M10 A3023 RMK AO2
K06D 111735Z AUTO 36016G22KT 10SM -SN BKN017 OVC022 M07/M10 A3023 RMK AO2
K06D 111715Z AUTO 35021KT 10SM -SN BKN017 M07/M10 A3022 RMK AO2
K06D 111655Z AUTO 36021G27KT 10SM -SN OVC017 M08/M10 A3021 RMK AO2
K06D 111635Z AUTO 36019G24KT 10SM -SN OVC016 M08/M10 A3019 RMK AO2
K06D 111615Z AUTO 36017G26KT 10SM -SN OVC016 M08/M11 A3018 RMK AO2
K06D 111555Z AUTO 35020KT 10SM -SN OVC014 M08/M10 A3016 RMK AO2
K06D 111535Z AUTO 35018G24KT 10SM SCT014 BKN020 M08/M10 A3015 RMK AO2
K06D 111515Z AUTO 01016G22KT 10SM -SN BKN014 M08/M10 A3014 RMK AO2
K06D 111455Z AUTO 01018KT 10SM -SN OVC013 M08/M09 A3012 RMK AO2
K06D 111435Z AUTO 01020KT 10SM OVC012 M08/M09 A3011 RMK AO2
K06D 111415Z AUTO 01020KT 10SM BKN009 OVC012 M07/M08 A3010 RMK AO2
K06D 111355Z AUTO 01022KT 10SM BKN008 OVC012 M07/M07 A3008 RMK AO2
K06D 111335Z AUTO 02020G28KT 10SM OVC011 M05/M06 A3005 RMK AO2
K06D 111315Z AUTO 36029KT 10SM OVC011 M04/M05 A3003 RMK AO2
K06D 111255Z AUTO 36024G31KT 10SM BKN010 OVC014 M03/M04 A3001 RMK AO2
K06D 111235Z AUTO 35020G28KT 10SM OVC013 M02/M03 A2999 RMK AO2
K06D 111215Z AUTO 35025G32KT 10SM OVC012 M01/M02 A2997 RMK AO2
K06D 111155Z AUTO 35022G30KT 10SM OVC012 M01/M02 A2994 RMK AO2
K06D 111135Z AUTO 34023G29KT 10SM OVC012 M00/M01 A2993 RMK AO2
K06D 111115Z AUTO 34021G28KT 10SM OVC013 M00/M01 A2990 RMK AO2
K06D 111055Z AUTO 34023KT 10SM OVC011 00/00 A2987 RMK AO2
K06D 111035Z AUTO 34021G27KT 10SM BKN009 BKN013 OVC017 01/01 A2985 RMK AO2
K06D 111015Z AUTO 33022G29KT 10SM -UP BKN009 BKN012 OVC021 01/01 A2984 RMK AO2
K06D 110955Z AUTO 33019G25KT 10SM -UP BKN010 BKN014 OVC021 01/01 A2982 RMK AO2
K06D 110935Z AUTO 33019G26KT 10SM -UP BKN010 OVC015 01/01 A2981 RMK AO2
K06D 110915Z AUTO 32023G28KT 10SM -UP OVC012 01/01 A2980 RMK AO2
K06D 110855Z AUTO 32019G27KT 10SM OVC010 01/01 A2978 RMK AO2
K06D 110835Z AUTO 33022G27KT 10SM BKN010 OVC013 01/01 A2977 RMK AO2
K06D 110815Z AUTO 33024G29KT 10SM -SN OVC009 01/01 A2975 RMK AO2
K06D 110755Z AUTO 32027G36KT 10SM -SN FEW005 OVC010 02/02 A2973 RMK AO2
K06D 110735Z AUTO 32024G31KT 4SM +UP SCT006 BKN012 OVC055 01/01 A2972 RMK AO2
K06D 110715Z AUTO 32026G31KT 10SM BKN013 OVC055 02/01 A2971 RMK AO2
K06D 110655Z AUTO 31024G31KT 10SM OVC013 02/02 A2970 RMK AO2
K06D 110635Z AUTO 31023KT 10SM BKN014 BKN023 OVC033 02/01 A2970 RMK AO2
K06D 110615Z AUTO 30017G25KT 10SM -RA FEW017 FEW023 BKN032 02/02 A2970 RMK AO2
K06D 110555Z AUTO 30019KT 10SM -RA FEW015 SCT021 SCT029 02/01 A2970 RMK AO2
K06D 110535Z AUTO 29021G27KT 10SM -RA FEW019 SCT027 BKN065 02/01 A2970 RMK AO2
K06D 110515Z AUTO 28018KT 10SM SCT075 SCT095 BKN110 03/M03 A2970 RMK AO2
K06D 110455Z AUTO 26010KT 10SM CLR 00/M02 A2971 RMK AO2
K06D 110435Z AUTO 25010G16KT 10SM FEW046 02/M02 A2971 RMK AO2
K06D 110415Z AUTO 26014G20KT 10SM BKN047 BKN055 BKN120 02/M01 A2973 RMK AO2
K06D 110355Z AUTO 27015KT 10SM BKN055 BKN075 OVC120 02/M01 A2973 RMK AO2
K06D 110335Z AUTO 26015KT 10SM FEW038 SCT050 BKN060 02/M01 A2974 RMK AO2
K06D 110315Z AUTO 26011KT 10SM FEW055 BKN065 OVC090 02/M01 A2976 RMK AO2
K06D 110255Z AUTO 26007KT 10SM SCT080 OVC095 02/M01 A2977 RMK AO2
K06D 110235Z AUTO 28008KT 10SM FEW075 OVC100 02/M01 A2978 RMK AO2
K06D 110215Z AUTO 28007KT 10SM OVC095 01/M01 A2979 RMK AO2
K06D 110155Z AUTO 22006KT 10SM FEW080 OVC090 01/M01 A2979 RMK AO2
K06D 110135Z AUTO 24008KT 10SM BKN075 OVC085 01/M01 A2979 RMK AO2
K06D 110115Z AUTO 23007KT 10SM SCT044 BKN060 OVC070 00/M01 A2980 RMK AO2
K06D 110055Z AUTO 21006KT 10SM BKN043 OVC055 00/M01 A2982 RMK AO2
K06D 110035Z AUTO 20007KT 10SM -RA SCT039 BKN046 OVC055 01/M01 A2982 RMK AO2
K06D 110015Z AUTO 00000KT 10SM -RA FEW022 SCT033 BKN047 01/M02 A2984 RMK AO2
K06D 102355Z AUTO 29009KT 10SM -RA SCT024 BKN033 OVC041 02/M03 A2987 RMK AO2
K06D 102335Z AUTO 28011KT 10SM SCT043 OVC060 02/M04 A2988 RMK AO2
K06D 102315Z AUTO 26007KT 10SM BKN060 OVC080 01/M04 A2988 RMK AO2
K06D 102255Z AUTO 23007KT 10SM BKN080 01/M04 A2988 RMK AO2
K06D 102235Z AUTO 23010KT 10SM SCT065 01/M04 A2988 RMK AO2
K06D 102215Z AUTO 23007KT 10SM OVC065 02/M03 A2990 RMK AO2
K06D 102155Z AUTO 22005KT 10SM OVC065 02/M03 A2991 RMK AO2
K06D 102135Z AUTO 22006KT 10SM OVC070 02/M03 A2992 RMK AO2
K06D 102115Z AUTO 23009KT 10SM OVC070 02/M03 A2992 RMK AO2
K06D 102055Z AUTO 22006KT 10SM OVC070 02/M03 A2993 RMK AO2
K06D 102035Z AUTO 24007KT 10SM OVC070 02/M03 A2994 RMK AO2
K06D 102015Z AUTO 22006KT 10SM OVC070 02/M03 A2994 RMK AO2
K06D 101955Z AUTO 21004KT 10SM OVC070 02/M03 A2994 RMK AO2
K06D 101935Z AUTO 00000KT 10SM OVC070 02/M03 A2995 RMK AO2
K06D 101915Z AUTO 00000KT 10SM OVC070 02/M03 A2996 RMK AO2
K06D 101855Z AUTO 34003KT 10SM OVC070 02/M03 A2996 RMK AO2
K06D 101835Z AUTO 32004KT 10SM OVC070 02/M03 A2996 RMK AO2
K06D 101815Z AUTO 00000KT 10SM OVC070 02/M03 A2997 RMK AO2
K06D 101755Z AUTO 31004KT 10SM OVC070 02/M03 A2997 RMK AO2
K06D 101735Z AUTO 28004KT 10SM OVC075 01/M03 A2997 RMK AO2
K06D 101715Z AUTO 28004KT 10SM OVC075 01/M03 A2997 RMK AO2
K06D 101655Z AUTO 31005KT 10SM OVC075 01/M03 A2997 RMK AO2
K06D 101635Z AUTO 32004KT 10SM OVC080 00/M03 A2998 RMK AO2
K06D 101615Z AUTO 00000KT 10SM OVC090 M00/M03 A2998 RMK AO2
K06D 101555Z AUTO 00000KT 10SM BKN090 OVC110 M01/M03 A2998 RMK AO2
K06D 101535Z AUTO 24003KT 10SM OVC100 M02/M03 A2997 RMK AO2
K06D 101515Z AUTO 00000KT 10SM OVC100 M03/M03 A2997 RMK AO2
K06D 101455Z AUTO 00000KT 10SM OVC100 M03/M04 A2997 RMK AO2
K06D 101435Z AUTO 00000KT 10SM OVC100 M03/M04 A2997 RMK AO2
K06D 101415Z AUTO 25005KT 10SM OVC100 M03/M04 A2997 RMK AO2
K06D 101355Z AUTO 23005KT 10SM OVC100 M03/M04 A2996 RMK AO2
K06D 101335Z AUTO 24006KT 10SM OVC100 M04/M05 A2997 RMK AO2
K06D 101315Z AUTO 22003KT 10SM FEW075 OVC110 M05/M05 A2996 RMK AO2
K06D 101255Z AUTO 00000KT 10SM FEW075 OVC110 M06/M06 A2996 RMK AO2
K06D 101235Z AUTO 00000KT 10SM OVC110 M06/M06 A2996 RMK AO2
K06D 101215Z AUTO 00000KT 10SM SCT110 M05/M05 A2996 RMK AO2
K06D 101155Z AUTO 01004KT 10SM CLR M06/M06 A2996 RMK AO2
K06D 101135Z AUTO 35003KT 10SM CLR M05/M05 A2996 RMK AO2
K06D 101115Z AUTO 00000KT 10SM CLR M05/M05 A2996 RMK AO2
K06D 101055Z AUTO 32004KT 10SM CLR M04/M05 A2997 RMK AO2